Time;durP1;ratioP1;P1;durP2;ratioP2;P2;SDS_P1;SDS_P2;PMS_P1;PMS_P2;Temp;Humidity;BMP_temperature;BMP_pressure;BME280_temperature;BME280_humidity;BME280_pressure;Samples;Min_cycle;Max_cycle;Signal;HPM_P1;HPM_P2
2022/04/24 00:00:13;;;;;;;8.30;5.90;;;;;;99550.77;;;;107097;1274;64715;-41
2022/04/24 00:03:00;;;;;;;8.20;5.70;;;;;;99549.44;;;;107180;1274;64702;-33
2022/04/24 00:05:27;;;;;;;8.60;6.30;;;;;;99547.20;;;;107167;1274;64739;-31
2022/04/24 00:07:58;;;;;;;10.40;6.00;;;;;;99546.27;;;;107188;1274;64741;-40
2022/04/24 00:10:26;;;;;;;8.80;5.90;;;;;;99545.26;;;;107205;1274;64917;-27
2022/04/24 00:12:53;;;;;;;8.60;6.00;;;;;;99542.96;;;;107171;1274;64770;-26
2022/04/24 00:15:26;;;;;;;9.10;6.60;;;;;;99540.55;;;;107152;1274;64695;-28
2022/04/24 00:17:57;;;;;;;;;;;;;;99540.27;;;;107191;1273;64818;-32
2022/04/24 00:20:24;;;;;;;7.90;5.90;;;;;;99542.01;;;;107188;1274;64769;-27
2022/04/24 00:22:55;;;;;;;8.30;6.30;;;;;;99533.96;;;;107190;1274;64882;-26
2022/04/24 00:25:23;;;;;;;8.80;6.20;;;;;;99531.13;;;;107180;1274;64718;-29
2022/04/24 00:27:50;;;;;;;7.70;5.80;;;;;;99528.41;;;;107169;1274;64920;-32
2022/04/24 00:30:23;;;;;;;7.80;6.10;;;;;;99529.20;;;;107159;1274;64892;-33
2022/04/24 00:32:50;;;;;;;8.50;5.90;;;;;;99524.32;;;;107185;1274;64742;-27
2022/04/24 00:35:17;;;;;;;8.00;5.90;;;;;;99523.33;;;;107203;1274;66146;-35
2022/04/24 00:37:48;;;;;;;7.70;5.60;;;;;;99525.65;;;;107172;1274;64824;-27
2022/04/24 00:40:15;;;;;;;8.80;5.50;;;;;;99526.05;;;;107156;1274;64773;-27
2022/04/24 00:42:45;;;;;;;8.20;5.20;;;;;;99528.35;;;;107167;1274;64829;-27
2022/04/24 00:45:12;;;;;;;7.70;5.70;;;;;;99532.77;;;;107160;1274;64856;-26
2022/04/24 00:47:44;;;;;;;8.00;5.70;;;;;;99537.48;;;;107172;1274;64771;-32
2022/04/24 00:50:12;;;;;;;7.70;5.80;;;;;;99540.48;;;;107148;1274;64782;-32
2022/04/24 00:52:39;;;;;;;8.00;5.20;;;;;;99546.48;;;;107170;1274;64821;-32
2022/04/24 00:55:07;;;;;;;7.60;5.00;;;;;;99548.98;;;;107125;1274;64754;-33
2022/04/24 00:57:35;;;;;;;8.30;5.90;;;;;;99547.39;;;;107165;1274;64972;-27
2022/04/24 01:00:04;;;;;;;7.40;5.30;;;;;;99545.89;;;;107223;1274;66455;-30
2022/04/24 01:02:31;;;;;;;8.30;5.00;;;;;;99544.95;;;;107173;1274;64953;-27
2022/04/24 01:04:58;;;;;;;8.00;5.60;;;;;;99543.48;;;;107154;1274;64721;-27
2022/04/24 01:07:29;;;;;;;8.10;5.40;;;;;;99541.63;;;;107141;1274;64829;-42
2022/04/24 01:10:00;;;;;;;8.30;5.50;;;;;;99539.56;;;;107178;1274;64765;-32
2022/04/24 01:12:27;;;;;;;8.10;5.90;;;;;;99540.27;;;;107183;1274;66430;-32
2022/04/24 01:14:57;;;;;;;7.10;5.70;;;;;;99545.40;;;;107137;1274;64786;-32
2022/04/24 01:17:24;;;;;;;8.20;5.30;;;;;;99545.84;;;;107148;1274;64783;-26
2022/04/24 01:19:52;;;;;;;7.80;5.90;;;;;;99546.61;;;;107142;1274;64867;-26
2022/04/24 01:22:19;;;;;;;7.00;5.30;;;;;;99549.58;;;;107189;1274;64889;-27
2022/04/24 01:24:46;;;;;;;7.90;6.00;;;;;;99550.42;;;;107170;1274;64984;-27
2022/04/24 01:27:16;;;;;;;7.40;5.50;;;;;;99552.77;;;;107163;1274;64779;-26
2022/04/24 01:29:43;;;;;;;7.10;5.60;;;;;;99551.16;;;;107191;1274;64753;-45
2022/04/24 01:32:10;;;;;;;6.80;5.40;;;;;;99548.64;;;;107139;1274;64856;-26
2022/04/24 01:34:38;;;;;;;7.70;5.90;;;;;;99546.45;;;;107153;1274;64776;-26
2022/04/24 01:37:05;;;;;;;7.60;5.60;;;;;;99542.88;;;;107179;1274;65956;-32
2022/04/24 01:39:32;;;;;;;8.00;5.60;;;;;;99538.21;;;;107144;1274;64878;-32
2022/04/24 01:41:59;;;;;;;7.20;5.50;;;;;;99536.17;;;;107169;1274;64885;-32
2022/04/24 01:44:27;;;;;;;7.80;5.70;;;;;;99532.33;;;;107143;1274;65309;-33
2022/04/24 01:46:57;;;;;;;7.60;5.50;;;;;;99531.04;;;;107187;1274;64025;-27
2022/04/24 01:49:24;;;;;;;10.30;6.20;;;;;;99536.43;;;;107132;1274;64900;-26
2022/04/24 01:51:51;;;;;;;7.70;5.90;;;;;;99533.63;;;;107166;1274;65414;-32
2022/04/24 01:54:22;;;;;;;7.70;5.80;;;;;;99531.89;;;;107136;1274;64921;-32
2022/04/24 01:56:49;;;;;;;8.70;5.60;;;;;;99530.84;;;;107097;1274;64894;-32
2022/04/24 01:59:16;;;;;;;7.90;5.70;;;;;;99532.81;;;;107163;1274;64888;-32
2022/04/24 02:01:43;;;;;;;6.90;5.40;;;;;;99533.89;;;;107201;1274;66500;-31
2022/04/24 02:04:10;;;;;;;8.80;6.10;;;;;;99533.58;;;;107141;1274;64859;-32
2022/04/24 02:06:41;;;;;;;7.70;6.40;;;;;;99531.61;;;;107169;1274;64781;-27
2022/04/24 02:09:08;;;;;;;8.40;5.70;;;;;;99530.91;;;;107154;1274;64807;-27
2022/04/24 02:11:38;;;;;;;8.10;5.70;;;;;;99529.95;;;;107173;1274;64884;-33
2022/04/24 02:14:06;;;;;;;8.20;5.60;;;;;;99531.42;;;;107188;1274;66183;-38
2022/04/24 02:16:35;;;;;;;9.10;6.00;;;;;;99534.38;;;;107147;1273;64774;-31
2022/04/24 02:19:03;;;;;;;8.20;6.00;;;;;;99535.98;;;;107139;1274;64746;-32
2022/04/24 02:21:32;;;;;;;9.30;6.70;;;;;;99538.33;;;;107139;1274;64795;-26
2022/04/24 02:24:00;;;;;;;8.10;5.90;;;;;;99541.30;;;;107155;1274;64976;-26
2022/04/24 02:26:30;;;;;;;7.30;6.00;;;;;;99542.98;;;;107162;1274;64871;-26
2022/04/24 02:28:58;;;;;;;7.70;5.60;;;;;;99545.13;;;;107160;1274;64949;-26
2022/04/24 02:31:28;;;;;;;8.10;5.70;;;;;;99547.58;;;;107186;1274;64756;-33
2022/04/24 02:33:55;;;;;;;8.00;5.80;;;;;;99549.08;;;;107153;1274;64781;-32
2022/04/24 02:36:25;;;;;;;7.60;6.20;;;;;;99553.55;;;;107172;1274;64971;-28
2022/04/24 02:38:53;;;;;;;7.60;6.20;;;;;;99556.88;;;;107132;1274;66132;-26
2022/04/24 02:41:20;;;;;;;8.20;6.00;;;;;;99552.20;;;;107166;1274;64588;-32
2022/04/24 02:43:47;;;;;;;8.40;6.10;;;;;;99549.84;;;;107120;1274;64766;-32
2022/04/24 02:46:18;;;;;;;7.50;6.00;;;;;;99548.17;;;;107127;1276;64904;-33
2022/04/24 02:48:47;;;;;;;8.20;6.80;;;;;;99546.55;;;;107178;1274;64760;-32
2022/04/24 02:51:15;;;;;;;8.40;6.40;;;;;;99548.25;;;;107181;1274;66485;-32
2022/04/24 02:53:45;;;;;;;8.10;6.20;;;;;;99543.84;;;;107121;1274;64885;-32
2022/04/24 02:56:15;;;;;;;8.80;6.00;;;;;;99544.84;;;;107174;1274;64840;-32
2022/04/24 02:58:44;;;;;;;8.00;5.80;;;;;;99540.34;;;;107127;1274;64767;-32
2022/04/24 03:01:14;;;;;;;8.30;6.20;;;;;;99542.86;;;;107194;1274;64811;-31
2022/04/24 03:03:42;;;;;;;8.40;5.90;;;;;;99548.70;;;;107144;1274;65979;-34
2022/04/24 03:06:09;;;;;;;8.10;6.50;;;;;;99546.17;;;;107175;1274;64771;-26
2022/04/24 03:08:40;;;;;;;8.70;6.00;;;;;;99545.48;;;;107161;1274;64732;-25
2022/04/24 03:11:07;;;;;;;7.10;5.80;;;;;;99541.47;;;;107174;1274;64749;-32
2022/04/24 03:13:37;;;;;;;8.40;6.30;;;;;;99541.80;;;;107112;1276;64838;-32
2022/04/24 03:16:05;;;;;;;7.90;6.00;;;;;;99542.51;;;;107159;1274;67666;-26
2022/04/24 03:18:32;;;;;;;7.80;5.70;;;;;;99540.02;;;;107168;1274;64804;-26
2022/04/24 03:21:00;;;;;;;8.70;6.20;;;;;;99539.77;;;;107121;1274;64762;-26
2022/04/24 03:23:27;;;;;;;8.20;6.50;;;;;;99541.00;;;;107175;1274;64888;-27
2022/04/24 03:25:58;;;;;;;8.10;6.20;;;;;;99538.27;;;;107161;1274;64965;-26
2022/04/24 03:28:25;;;;;;;8.10;6.00;;;;;;99535.60;;;;107154;1274;67713;-26
2022/04/24 03:30:56;;;;;;;7.40;6.50;;;;;;99536.02;;;;107119;1274;64864;-31
2022/04/24 03:33:24;;;;;;;7.60;6.20;;;;;;99537.70;;;;107146;1274;64854;-32
2022/04/24 03:35:54;;;;;;;7.50;5.70;;;;;;99538.97;;;;107163;1274;64901;-26
2022/04/24 03:38:21;;;;;;;8.30;5.70;;;;;;99537.33;;;;107141;1274;64875;-26
2022/04/24 03:40:48;;;;;;;7.40;5.80;;;;;;99536.41;;;;107204;1274;64916;-32
2022/04/24 03:43:16;;;;;;;7.80;6.10;;;;;;99539.04;;;;107164;1274;64726;-32
2022/04/24 03:45:46;;;;;;;8.60;6.40;;;;;;99541.66;;;;107201;1274;64904;-33
2022/04/24 03:48:16;;;;;;;7.60;6.00;;;;;;99539.59;;;;107160;1274;65058;-33
2022/04/24 03:50:43;;;;;;;7.90;5.80;;;;;;99536.58;;;;107188;1274;64964;-32
2022/04/24 03:53:13;;;;;;;8.00;5.70;;;;;;99538.52;;;;107118;1274;64976;-26
2022/04/24 03:55:40;;;;;;;7.20;5.50;;;;;;99540.23;;;;107164;1274;64860;-31
2022/04/24 03:58:08;;;;;;;7.30;6.20;;;;;;99537.05;;;;107171;1274;64729;-32
2022/04/24 04:00:36;;;;;;;8.10;5.80;;;;;;99534.27;;;;107150;1274;65015;-32
2022/04/24 04:03:03;;;;;;;7.60;5.70;;;;;;99536.89;;;;107188;1274;64853;-32
2022/04/24 04:05:30;;;;;;;7.10;5.60;;;;;;99535.80;;;;107197;1274;67406;-26
2022/04/24 04:08:00;;;;;;;7.80;6.00;;;;;;99539.33;;;;107143;1274;64742;-26
2022/04/24 04:10:31;;;;;;;6.30;4.90;;;;;;99537.69;;;;107168;1274;64891;-31
2022/04/24 04:13:07;;;;;;;6.90;5.60;;;;;;99541.75;;;;107147;1274;64860;-32
2022/04/24 04:15:37;;;;;;;7.10;5.30;;;;;;99542.81;;;;107002;1274;221676;-26
2022/04/24 04:18:07;;;;;;;6.90;5.60;;;;;;99539.64;;;;107086;1274;66100;-27
2022/04/24 04:20:34;;;;;;;7.00;5.40;;;;;;99540.23;;;;107158;1274;64943;-26
2022/04/24 04:23:03;;;;;;;7.00;5.40;;;;;;99546.65;;;;107175;1274;64770;-26
2022/04/24 04:25:30;;;;;;;8.10;5.70;;;;;;99544.95;;;;107177;1274;64768;-31
2022/04/24 04:27:58;;;;;;;7.80;5.60;;;;;;99551.85;;;;107159;1274;64756;-32
2022/04/24 04:30:28;;;;;;;6.20;5.30;;;;;;99551.88;;;;107178;1274;64901;-31
2022/04/24 04:32:55;;;;;;;6.80;5.20;;;;;;99552.55;;;;107130;1274;65007;-32
2022/04/24 04:35:23;;;;;;;6.50;5.00;;;;;;99555.48;;;;107151;1274;64734;-31
2022/04/24 04:37:51;;;;;;;7.10;5.40;;;;;;99550.05;;;;107205;1274;64951;-33
2022/04/24 04:40:21;;;;;;;6.90;5.60;;;;;;99550.66;;;;107149;1275;64790;-32
2022/04/24 04:42:49;;;;;;;7.20;5.70;;;;;;99547.83;;;;107173;1274;65321;-31
2022/04/24 04:45:20;;;;;;;6.90;5.40;;;;;;99548.52;;;;107148;1274;64812;-32
2022/04/24 04:47:47;;;;;;;7.30;5.40;;;;;;99550.59;;;;107183;1274;66025;-25
2022/04/24 04:50:18;;;;;;;7.40;5.60;;;;;;99550.38;;;;107133;1275;64909;-26
2022/04/24 04:52:45;;;;;;;7.10;5.20;;;;;;99547.67;;;;107208;1274;64652;-32
2022/04/24 04:55:12;;;;;;;7.20;5.30;;;;;;99545.59;;;;107149;1274;66121;-31
2022/04/24 04:57:39;;;;;;;7.40;5.40;;;;;;99539.00;;;;107198;1274;64759;-26
2022/04/24 05:00:12;;;;;;;7.30;5.20;;;;;;99536.84;;;;107143;1274;64782;-26
2022/04/24 05:02:40;;;;;;;7.30;5.40;;;;;;99540.40;;;;107173;1274;64961;-26
2022/04/24 05:05:10;;;;;;;7.30;5.50;;;;;;99542.02;;;;107204;1274;64766;-26
2022/04/24 05:07:38;;;;;;;7.00;5.30;;;;;;99547.80;;;;107189;1274;65972;-26
2022/04/24 05:10:08;;;;;;;7.10;5.50;;;;;;99550.33;;;;107138;1274;64763;-26
2022/04/24 05:12:36;;;;;;;7.00;5.00;;;;;;99549.91;;;;107224;1274;65174;-31
2022/04/24 05:15:08;;;;;;;7.50;5.30;;;;;;99545.48;;;;107199;1274;64808;-32
2022/04/24 05:17:36;;;;;;;6.40;5.30;;;;;;99545.80;;;;107205;1274;64671;-26
2022/04/24 05:20:05;;;;;;;6.50;5.30;;;;;;99547.14;;;;107163;1274;66046;-26
2022/04/24 05:22:36;;;;;;;6.90;5.00;;;;;;99548.27;;;;107202;1274;64820;-31
2022/04/24 05:25:05;;;;;;;6.30;4.90;;;;;;99545.73;;;;107175;1274;64807;-31
2022/04/24 05:27:32;;;;;;;7.20;5.20;;;;;;99543.31;;;;107212;1274;64794;-42
2022/04/24 05:29:59;;;;;;;6.60;4.70;;;;;;99543.55;;;;107166;1274;64782;-32
2022/04/24 05:32:47;;;;;;;6.60;4.90;;;;;;99541.34;;;;107181;1274;66573;-25
2022/04/24 05:35:17;;;;;;;6.80;5.00;;;;;;99541.06;;;;107159;1274;64766;-26
2022/04/24 05:37:46;;;;;;;6.90;5.20;;;;;;99540.55;;;;107176;1274;64850;-26
2022/04/24 05:40:16;;;;;;;7.20;5.10;;;;;;99545.19;;;;107128;1274;64787;-26
2022/04/24 05:42:55;;;;;;;6.80;5.20;;;;;;99550.88;;;;107205;1274;64715;-32
2022/04/24 05:45:24;;;;;;;6.30;4.90;;;;;;99556.97;;;;107160;1274;67713;-28
2022/04/24 05:47:55;;;;;;;7.10;4.80;;;;;;99557.19;;;;107165;1274;64726;-31
2022/04/24 05:50:25;;;;;;;6.20;4.70;;;;;;99558.63;;;;107146;1274;64856;-26
2022/04/24 05:52:57;;;;;;;6.90;4.80;;;;;;99559.91;;;;107116;1274;65195;-26
2022/04/24 05:55:27;;;;;;;9.40;5.60;;;;;;99561.09;;;;107150;1274;64945;-27
2022/04/24 05:57:55;;;;;;;5.90;4.90;;;;;;99569.30;;;;107139;1274;66221;-25
2022/04/24 06:00:23;;;;;;;7.10;4.80;;;;;;99572.23;;;;107143;1277;64981;-26
2022/04/24 06:02:54;;;;;;;7.00;5.10;;;;;;99572.58;;;;107140;1274;64763;-30
2022/04/24 06:05:24;;;;;;;7.20;5.00;;;;;;99570.67;;;;107135;1274;65389;-28
2022/04/24 06:07:52;;;;;;;6.20;4.40;;;;;;99572.50;;;;107181;1274;64716;-26
2022/04/24 06:10:22;;;;;;;6.40;5.10;;;;;;99570.39;;;;107166;1274;65746;-26
2022/04/24 06:12:55;;;;;;;6.40;4.40;;;;;;99572.69;;;;107116;1274;64762;-26
2022/04/24 06:15:26;;;;;;;6.30;4.60;;;;;;99575.35;;;;107126;1274;64943;-30
2022/04/24 06:17:57;;;;;;;6.30;4.60;;;;;;99576.88;;;;107124;1274;64868;-32
2022/04/24 06:20:28;;;;;;;5.90;4.40;;;;;;99578.14;;;;107205;1274;64779;-31
2022/04/24 06:23:00;;;;;;;6.10;4.10;;;;;;99580.63;;;;107192;1274;66125;-33
2022/04/24 06:25:34;;;;;;;6.70;4.30;;;;;;99578.91;;;;107174;1273;64880;-31
2022/04/24 06:28:05;;;;;;;6.40;4.70;;;;;;99584.23;;;;107178;1274;64755;-32
2022/04/24 06:30:40;;;;;;;7.40;5.00;;;;;;99585.38;;;;107181;1274;64892;-26
2022/04/24 06:33:11;;;;;;;7.30;4.80;;;;;;99580.69;;;;107165;1274;65190;-26
2022/04/24 06:35:39;;;;;;;6.90;4.60;;;;;;99581.76;;;;107117;1274;67157;-27
2022/04/24 06:38:10;;;;;;;8.80;5.30;;;;;;99580.19;;;;107200;1274;64865;-26
2022/04/24 06:40:40;;;;;;;8.40;5.30;;;;;;99584.09;;;;107174;1273;64737;-33
2022/04/24 06:43:11;;;;;;;7.50;5.10;;;;;;99589.02;;;;107069;1277;64926;-33
2022/04/24 06:45:43;;;;;;;7.20;5.10;;;;;;99594.44;;;;107227;1274;63600;-26
2022/04/24 06:48:16;;;;;;;11.20;5.20;;;;;;99595.69;;;;107115;1274;67401;-26
2022/04/24 06:50:46;;;;;;;7.70;5.00;;;;;;99597.71;;;;107205;1274;65083;-31
2022/04/24 06:53:20;;;;;;;9.70;5.40;;;;;;99598.46;;;;107133;1274;64889;-31
2022/04/24 06:55:50;;;;;;;7.50;4.70;;;;;;99596.48;;;;107144;1275;64963;-26
2022/04/24 06:58:21;;;;;;;8.10;5.30;;;;;;99593.15;;;;107164;1274;64888;-25
2022/04/24 07:00:52;;;;;;;7.20;4.80;;;;;;99593.77;;;;107192;1274;67530;-26
2022/04/24 07:03:24;;;;;;;7.50;5.10;;;;;;99596.11;;;;107117;1274;64726;-26
2022/04/24 07:05:56;;;;;;;8.10;4.70;;;;;;99602.13;;;;107222;1274;64856;-26
2022/04/24 07:08:29;;;;;;;7.90;4.80;;;;;;99610.11;;;;107183;1274;64761;-26
2022/04/24 07:10:56;;;;;;;7.60;5.50;;;;;;99611.30;;;;107211;1274;64817;-26
2022/04/24 07:13:27;;;;;;;6.30;4.40;;;;;;99614.92;;;;107194;1274;65357;-26
2022/04/24 07:15:54;;;;;;;9.20;5.00;;;;;;99612.60;;;;107186;1274;64872;-31
2022/04/24 07:18:22;;;;;;;7.60;4.60;;;;;;99609.45;;;;107167;1274;64781;-31
2022/04/24 07:20:50;;;;;;;8.80;5.00;;;;;;99610.45;;;;107180;1274;64759;-26
2022/04/24 07:23:20;;;;;;;7.70;4.70;;;;;;99612.10;;;;107102;1275;64808;-26
2022/04/24 07:25:48;;;;;;;6.60;4.50;;;;;;99610.27;;;;107150;1275;64899;-31
2022/04/24 07:28:19;;;;;;;6.70;4.40;;;;;;99603.46;;;;107191;1274;64863;-31
2022/04/24 07:30:49;;;;;;;7.90;4.60;;;;;;99598.97;;;;107231;1274;64897;-32
2022/04/24 07:33:19;;;;;;;6.20;4.50;;;;;;99598.34;;;;107137;1275;64761;-31
2022/04/24 07:35:46;;;;;;;7.80;4.80;;;;;;99599.95;;;;107157;1274;64634;-32
2022/04/24 07:38:13;;;;;;;6.50;4.80;;;;;;99599.80;;;;107086;1275;66165;-32
2022/04/24 07:40:41;;;;;;;6.70;4.20;;;;;;99602.20;;;;107174;1274;64856;-26
2022/04/24 07:43:13;;;;;;;7.10;4.50;;;;;;99601.70;;;;107168;1274;64868;-26
2022/04/24 07:45:43;;;;;;;6.00;4.20;;;;;;99601.42;;;;107185;1274;64738;-26
2022/04/24 07:48:12;;;;;;;7.90;4.50;;;;;;99595.30;;;;107208;1274;64623;-26
2022/04/24 07:50:45;;;;;;;6.50;4.50;;;;;;99595.17;;;;107186;1274;64974;-31
2022/04/24 07:53:14;;;;;;;6.10;4.30;;;;;;99594.16;;;;107152;1277;64823;-31
2022/04/24 07:55:47;;;;;;;6.80;4.30;;;;;;99596.38;;;;107223;1274;64846;-26
2022/04/24 07:58:15;;;;;;;6.10;4.40;;;;;;99598.10;;;;107208;1274;64734;-26
2022/04/24 08:00:47;;;;;;;6.50;4.40;;;;;;99598.94;;;;107216;1274;64875;-32
2022/04/24 08:03:15;;;;;;;6.10;4.40;;;;;;99600.48;;;;107188;1274;65925;-32
2022/04/24 08:05:50;;;;;;;8.70;4.40;;;;;;99599.52;;;;107206;1274;64981;-26
2022/04/24 08:08:24;;;;;;;5.50;3.90;;;;;;99601.81;;;;107152;1274;64876;-26
2022/04/24 08:10:57;;;;;;;6.30;4.10;;;;;;99603.05;;;;107166;1274;64885;-34
2022/04/24 08:13:26;;;;;;;6.20;4.10;;;;;;99598.64;;;;107165;1274;64877;-26
2022/04/24 08:15:57;;;;;;;6.70;4.30;;;;;;99596.56;;;;107175;1274;66411;-33
2022/04/24 08:18:24;;;;;;;5.40;4.10;;;;;;99599.94;;;;107076;1275;64989;-32
2022/04/24 08:20:55;;;;;;;7.10;4.20;;;;;;99596.54;;;;107192;1274;65199;-26
2022/04/24 08:23:23;;;;;;;6.30;4.70;;;;;;99595.66;;;;107071;1277;64862;-26
2022/04/24 08:25:51;;;;;;;5.50;4.20;;;;;;99594.23;;;;107160;1275;64780;-31
2022/04/24 08:28:18;;;;;;;5.60;3.90;;;;;;99592.18;;;;107172;1274;66133;-32
2022/04/24 08:30:50;;;;;;;6.10;4.10;;;;;;99582.50;;;;107186;1274;64821;-26
2022/04/24 08:33:18;;;;;;;5.80;4.30;;;;;;99582.43;;;;107170;1274;65982;-26
2022/04/24 08:35:48;;;;;;;6.20;4.30;;;;;;99584.35;;;;107160;1274;64892;-31
2022/04/24 08:38:16;;;;;;;5.80;3.80;;;;;;99580.06;;;;107192;1274;64857;-33
2022/04/24 08:40:46;;;;;;;6.10;4.10;;;;;;99575.45;;;;107175;1274;66705;-26
2022/04/24 08:43:14;;;;;;;5.70;4.10;;;;;;99577.88;;;;107148;1275;64955;-26
2022/04/24 08:45:46;;;;;;;6.10;4.10;;;;;;99576.36;;;;107192;1274;65826;-31
2022/04/24 08:48:17;;;;;;;6.00;4.20;;;;;;99570.44;;;;107210;1274;64862;-32
2022/04/24 08:50:48;;;;;;;6.50;4.00;;;;;;99570.11;;;;107232;1274;64760;-27
2022/04/24 08:53:19;;;;;;;6.30;4.60;;;;;;99564.14;;;;107141;1274;67652;-26
2022/04/24 08:55:49;;;;;;;5.50;4.20;;;;;;99561.70;;;;107183;1274;65024;-26
2022/04/24 08:58:16;;;;;;;5.70;4.10;;;;;;99560.23;;;;107118;1277;64870;-26
2022/04/24 09:00:43;;;;;;;6.50;4.50;;;;;;99560.66;;;;107173;1274;64878;-28
2022/04/24 09:03:14;;;;;;;6.50;4.60;;;;;;99560.36;;;;107175;1274;64983;-32
2022/04/24 09:05:42;;;;;;;6.60;4.40;;;;;;99558.05;;;;107207;1274;64764;-27
2022/04/24 09:08:11;;;;;;;5.80;4.30;;;;;;99558.81;;;;107116;1274;64810;-28
2022/04/24 09:10:59;;;;;;;6.60;4.30;;;;;;99555.98;;;;107129;1275;64727;-27
2022/04/24 09:16:35;;;;;;;6.00;4.30;;;;;;99553.19;;;;107183;1274;64770;-27
2022/04/24 09:19:24;;;;;;;5.80;4.40;;;;;;99553.23;;;;107184;1274;67225;-27
2022/04/24 09:22:00;;;;;;;5.80;4.10;;;;;;99554.84;;;;107150;1275;64882;-27
2022/04/24 09:24:56;;;;;;;6.20;3.90;;;;;;99550.46;;;;107113;1277;64898;-27
2022/04/24 09:27:34;;;;;;;6.20;4.00;;;;;;99554.48;;;;107183;1274;64779;-33
2022/04/24 09:30:10;;;;;;;6.30;4.00;;;;;;99556.02;;;;107167;1274;64786;-32
2022/04/24 09:32:49;;;;;;;6.10;4.30;;;;;;99561.28;;;;107197;1274;65843;-27
2022/04/24 09:35:30;;;;;;;6.80;3.80;;;;;;99560.41;;;;107127;1274;65063;-28
2022/04/24 09:38:14;;;;;;;6.40;4.10;;;;;;99559.29;;;;107158;1274;64795;-32
2022/04/24 09:40:46;;;;;;;5.90;3.90;;;;;;99554.95;;;;107167;1274;64640;-32
2022/04/24 09:43:16;;;;;;;6.70;4.30;;;;;;99553.96;;;;107196;1274;64788;-32
2022/04/24 09:45:50;;;;;;;5.70;3.90;;;;;;99553.23;;;;107228;1274;66453;-39
2022/04/24 09:48:20;;;;;;;6.70;4.30;;;;;;99555.89;;;;107167;1274;64735;-33
2022/04/24 09:50:51;;;;;;;5.90;3.70;;;;;;99554.81;;;;107191;1274;64773;-27
2022/04/24 09:53:20;;;;;;;6.60;4.30;;;;;;99558.02;;;;107161;1277;64738;-27
2022/04/24 09:55:50;;;;;;;8.70;4.30;;;;;;99561.14;;;;107216;1274;64837;-32
2022/04/24 09:58:21;;;;;;;6.30;4.20;;;;;;99568.75;;;;107182;1274;65177;-32
2022/04/24 10:00:52;;;;;;;5.80;3.90;;;;;;99568.52;;;;107182;1274;64741;-27
2022/04/24 10:03:22;;;;;;;5.90;3.90;;;;;;99568.39;;;;107125;1277;64936;-26
2022/04/24 10:05:52;;;;;;;7.00;4.40;;;;;;99573.10;;;;107168;1274;64722;-32
2022/04/24 10:08:19;;;;;;;6.70;3.90;;;;;;99576.77;;;;107140;1274;64969;-32
2022/04/24 10:10:50;;;;;;;5.90;3.60;;;;;;99579.13;;;;107179;1274;64758;-33
2022/04/24 10:13:19;;;;;;;5.70;3.40;;;;;;99580.46;;;;107183;1274;64879;-32
2022/04/24 10:16:00;;;;;;;5.00;3.40;;;;;;99580.53;;;;107205;1274;64823;-33
2022/04/24 10:19:09;;;;;;;5.30;3.60;;;;;;99583.98;;;;107209;1274;64859;-33
2022/04/24 10:21:58;;;;;;;6.20;3.80;;;;;;99582.91;;;;107074;1274;64949;-27
2022/04/24 10:24:39;;;;;;;5.10;3.60;;;;;;99584.32;;;;107225;1274;67345;-27
2022/04/24 10:27:11;;;;;;;5.40;3.60;;;;;;99581.30;;;;107270;1274;64857;-32
2022/04/24 10:29:52;;;;;;;5.60;4.10;;;;;;99582.77;;;;107251;1274;65177;-32
2022/04/24 10:32:30;;;;;;;5.90;3.90;;;;;;99585.41;;;;107233;1274;64779;-32
2022/04/24 10:35:01;;;;;;;5.50;3.80;;;;;;99584.94;;;;107139;1275;64785;-33
2022/04/24 10:37:33;;;;;;;6.10;3.20;;;;;;99584.75;;;;107297;1274;67245;-32
2022/04/24 10:40:01;;;;;;;5.60;3.50;;;;;;99578.20;;;;107253;1274;64851;-32
2022/04/24 10:42:35;;;;;;;5.70;3.20;;;;;;99572.58;;;;107239;1274;64734;-26
2022/04/24 10:45:20;;;;;;;5.90;3.20;;;;;;99573.54;;;;107232;1274;64691;-27
2022/04/24 10:47:50;;;;;;;6.70;3.50;;;;;;99564.25;;;;107175;1274;64897;-32
2022/04/24 10:50:22;;;;;;;5.80;3.60;;;;;;99563.19;;;;107173;1274;64757;-32
2022/04/24 10:52:55;;;;;;;6.50;3.50;;;;;;99559.13;;;;107234;1274;64751;-32
2022/04/24 10:55:25;;;;;;;;;;;;;;99556.79;;;;107278;1274;65572;-28
2022/04/24 10:58:00;;;;;;;5.60;3.40;;;;;;99552.54;;;;107255;1274;64899;-27
2022/04/24 11:00:34;;;;;;;5.30;3.40;;;;;;99553.05;;;;107241;1274;64792;-31
2022/04/24 11:03:14;;;;;;;5.80;3.30;;;;;;99548.09;;;;107232;1274;67723;-32
2022/04/24 11:05:46;;;;;;;6.00;3.60;;;;;;99547.15;;;;107245;1274;64949;-27
2022/04/24 11:08:21;;;;;;;5.60;3.50;;;;;;99549.13;;;;107267;1274;64713;-27
2022/04/24 11:10:51;;;;;;;6.40;3.40;;;;;;99547.20;;;;107211;1274;65321;-32
2022/04/24 11:13:20;;;;;;;5.50;3.50;;;;;;99546.29;;;;107244;1274;64873;-31
2022/04/24 11:15:50;;;;;;;5.50;3.90;;;;;;99547.16;;;;107281;1274;66187;-27
2022/04/24 11:18:27;;;;;;;4.90;3.20;;;;;;99549.27;;;;107215;1274;64632;-26
2022/04/24 11:21:03;;;;;;;5.70;3.10;;;;;;99545.42;;;;107192;1274;64897;-31
2022/04/24 11:23:36;;;;;;;5.80;3.50;;;;;;99542.70;;;;107241;1273;64737;-32
2022/04/24 11:26:12;;;;;;;;;;;;;;99539.42;;;;107207;1274;64892;-27
2022/04/24 11:28:45;;;;;;;5.40;3.50;;;;;;99538.42;;;;107260;1274;65887;-27
2022/04/24 11:31:16;;;;;;;;;;;;;;99537.63;;;;107266;1274;64760;-27
2022/04/24 11:33:51;;;;;;;4.90;3.00;;;;;;99538.92;;;;107172;1274;64907;-27
2022/04/24 11:36:19;;;;;;;5.90;3.30;;;;;;99539.23;;;;107269;1274;64842;-31
2022/04/24 11:38:51;;;;;;;5.50;3.10;;;;;;99536.24;;;;107275;1274;64866;-32
2022/04/24 11:41:20;;;;;;;5.30;3.30;;;;;;99533.89;;;;107277;1274;64888;-30
2022/04/24 11:43:50;;;;;;;4.90;3.30;;;;;;99532.91;;;;107282;1274;64863;-27
2022/04/24 11:51:52;;;;;;;4.90;3.20;;;;;;99526.44;;;;107243;1274;64856;-27
2022/04/24 11:54:20;;;;;;;6.20;3.20;;;;;;99526.36;;;;107246;1273;66524;-27
2022/04/24 11:56:51;;;;;;;6.10;3.20;;;;;;99524.80;;;;107224;1274;63435;-27
2022/04/24 11:59:21;;;;;;;5.00;3.00;;;;;;99526.82;;;;107265;1273;64895;-27
2022/04/24 12:01:59;;;;;;;4.30;2.80;;;;;;99523.54;;;;107273;1274;64747;-33
2022/04/24 12:04:33;;;;;;;4.90;3.20;;;;;;99524.89;;;;107265;1274;64830;-32
2022/04/24 12:07:06;;;;;;;4.80;2.90;;;;;;99517.56;;;;107238;1274;66045;-26
2022/04/24 12:09:36;;;;;;;4.60;3.00;;;;;;99512.46;;;;107121;1275;64744;-28
2022/04/24 12:12:13;;;;;;;6.10;3.40;;;;;;99508.73;;;;107203;1274;64818;-27
2022/04/24 12:14:49;;;;;;;4.50;2.80;;;;;;99504.95;;;;106857;1274;501356;-26
2022/04/24 12:17:16;;;;;;;5.50;3.10;;;;;;99502.50;;;;107234;1274;64969;-27
2022/04/24 12:19:55;;;;;;;4.80;2.70;;;;;;99498.14;;;;107089;1274;66468;-27
2022/04/24 12:22:29;;;;;;;5.40;2.80;;;;;;99499.98;;;;107099;1274;64881;-32
2022/04/24 12:25:15;;;;;;;4.90;2.80;;;;;;99489.92;;;;107194;1274;64788;-32
2022/04/24 12:27:57;;;;;;;6.40;3.50;;;;;;99487.48;;;;107234;1274;64852;-27
2022/04/24 12:30:34;;;;;;;5.90;2.90;;;;;;99487.08;;;;107234;1274;64758;-27
2022/04/24 12:33:07;;;;;;;4.60;2.70;;;;;;99483.24;;;;107119;1274;66655;-32
2022/04/24 12:35:34;;;;;;;4.50;2.80;;;;;;99480.31;;;;107039;1274;64849;-32
2022/04/24 12:38:13;;;;;;;4.60;2.70;;;;;;99473.73;;;;107234;1274;64756;-35
2022/04/24 12:40:59;;;;;;;4.30;2.80;;;;;;99468.33;;;;107254;1274;64892;-27
2022/04/24 12:43:30;;;;;;;5.30;3.40;;;;;;99462.07;;;;107229;1274;64716;-27
2022/04/24 12:45:57;;;;;;;4.70;3.00;;;;;;99455.80;;;;107204;1274;65567;-31
2022/04/24 12:48:26;;;;;;;5.50;2.90;;;;;;99450.98;;;;107193;1274;64911;-31
2022/04/24 12:50:54;;;;;;;5.10;2.80;;;;;;99451.01;;;;107234;1274;64826;-32
2022/04/24 12:53:25;;;;;;;4.70;2.90;;;;;;99447.29;;;;107208;1274;64760;-31
2022/04/24 12:55:52;;;;;;;4.90;3.00;;;;;;99439.88;;;;107103;1274;64872;-31
2022/04/24 12:58:22;;;;;;;4.90;3.00;;;;;;99441.71;;;;107196;1274;66140;-31
2022/04/24 13:00:49;;;;;;;4.90;2.80;;;;;;99437.08;;;;107242;1274;64853;-31
2022/04/24 13:03:20;;;;;;;5.30;2.60;;;;;;99440.44;;;;107201;1274;64930;-32
2022/04/24 13:05:47;;;;;;;5.20;3.00;;;;;;99438.92;;;;107118;1274;64744;-29
2022/04/24 13:08:18;;;;;;;5.20;2.80;;;;;;99435.41;;;;107245;1274;64878;-28
2022/04/24 13:10:45;;;;;;;6.10;3.10;;;;;;99435.84;;;;107272;1273;64717;-29
2022/04/24 13:13:16;;;;;;;5.40;2.90;;;;;;99433.49;;;;107217;1274;64770;-31
2022/04/24 13:15:43;;;;;;;4.70;2.90;;;;;;99434.24;;;;107260;1274;66090;-29
2022/04/24 13:18:14;;;;;;;4.30;2.90;;;;;;99432.41;;;;107118;1274;64763;-31
2022/04/24 13:20:45;;;;;;;4.40;2.70;;;;;;99429.52;;;;107191;1274;65154;-30
2022/04/24 13:23:13;;;;;;;5.20;2.90;;;;;;99425.23;;;;107273;1274;66110;-31